Astoria Regional Airport Astoria US
ICAO: KAST
IATA: AST
Category: Medium
Scheduled Services: No

Elevation: 15 ft
TransAlt. 18000 ft.

Airport Communications:
ASOS:135.375
SEATTLE CNTR:124.2
AIR CG:38.18
MC MINNVILLE RDO:122.3
CTAF/UNICOM:122.8

KAST Zoom In..

If you have problems with the map follow the link
https://www.worldairports.se/pages/airport.php?
ICAO=KAST

Runways:

(A) RW 08 length 5795 ft width 100 ft
---- / hdg 77

(B) RW 13 length 4996 ft width 100 ft
---- / hdg 135

(C) RW 26 length 5795 ft width 100 ft
ILS 109.50 / hdg 257

(D) RW 31 length 4996 ft width 100 ft
---- / hdg 315

Location; KAST
Day. 23 / Time. 21.55 Zulu
* Altimeter: 29.91
* Temperature: 12° c. 53.6°f.
* Wind from: 190° Speed 13 kn with Gusts up to 28 kn.
Dewpoint: 11° c.
Visibility: 8 Statute Miles.
Clouds: Few 3600 ft.
Clouds: Scattered 5500 ft.
Clouds: Overcast 7000 ft.
Conditions: Light Rain.

KAST 232155Z AUTO 19013G28KT 8SM -RA FEW036 SCT055 OVC070 12/11 A2991 RMK AO2 PK WND 17031/2139 SLP128 P0003 T01220106


Wind From 190°
Speed 13 kn.

 
 
jpsmedia worldairports.se 2020   terms of use